Time;durP1;ratioP1;P1;durP2;ratioP2;P2;SDS_P1;SDS_P2;PMS_P1;PMS_P2;Temp;Humidity;BMP_temperature;BMP_pressure;BME280_temperature;BME280_humidity;BME280_pressure;Samples;Min_cycle;Max_cycle;Signal;HPM_P1;HPM_P2
2022/05/26 00:02:25;;;;;;;;;;;;;;;17.92;49.29;98918.25;1646395;87;21264;-65
2022/05/26 00:04:52;;;;;;;;;;;;;;;17.90;49.32;98912.31;1645971;87;20098;-66
2022/05/26 00:07:18;;;;;;;;;;;;;;;17.88;49.11;98924.38;1646434;87;20126;-67
2022/05/26 00:09:45;;;;;;;;;;;;;;;17.84;49.18;98922.95;1646303;87;20170;-66
2022/05/26 00:12:11;;;;;;;;;;;;;;;17.78;49.16;98921.69;1646597;87;20107;-66
2022/05/26 00:14:39;;;;;;;;;;;;;;;17.72;49.28;98919.04;1646336;87;21116;-66
2022/05/26 00:17:05;;;;;;;;;;;;;;;17.64;49.26;98918.71;1646235;87;20103;-67
2022/05/26 00:19:32;;;;;;;;;;;;;;;17.58;49.23;98921.02;1646381;87;20206;-66
2022/05/26 00:21:59;;;;;;;;;;;;;;;17.52;49.27;98918.36;1646208;87;20139;-66
2022/05/26 00:24:25;;;;;;;;;;;;;;;17.45;49.29;98914.11;1646394;87;20107;-67
2022/05/26 00:26:53;;;;;;;;;;;;;;;17.39;49.32;98907.29;1646237;87;22239;-66
2022/05/26 00:29:19;;;;;;;;;;;;;;;17.32;49.53;98905.25;1645600;86;20078;-67
2022/05/26 00:31:47;;;;;;;;;;;;;;;17.25;49.46;98909.31;1632480;86;20128;-68
2022/05/26 00:34:13;;;;;;;;;;;;;;;17.18;49.63;98901.48;1660233;85;20153;-67
2022/05/26 00:36:43;;;;;;;;;;;;;;;17.10;49.99;98899.99;1658612;86;20104;-66
2022/05/26 00:39:15;;;;;;;;;;;;;;;17.03;49.91;98894.34;1673630;85;21281;-67
2022/05/26 00:41:44;;;;;;;;;;;;;;;16.97;49.86;98901.38;1673760;85;20426;-67
2022/05/26 00:44:11;;;;;;;;;;;;;;;16.94;49.88;98906.88;1662607;85;20095;-67
2022/05/26 00:47:06;;;;;;;;;;;;;;;16.89;49.96;98889.98;1651760;86;20150;-66
2022/05/26 00:49:36;;;;;;;;;;;;;;;16.88;50.09;98888.37;1652755;85;20162;-67
2022/05/26 00:52:04;;;;;;;;;;;;;;;16.85;50.11;98900.20;1662579;85;21139;-68
2022/05/26 00:54:30;;;;;;;;;;;;;;;16.83;50.31;98901.97;1644989;87;20433;-66
2022/05/26 00:57:08;;;;;;;;;;;;;;;16.80;50.31;98890.83;1662183;86;20096;-66
2022/05/26 00:59:41;;;;;;;;;;;;;;;16.75;50.46;98891.94;1662471;86;20179;-66
2022/05/26 01:02:07;;;;;;;;;;;;;;;16.71;50.49;98886.96;1661571;86;20079;-66
2022/05/26 01:04:41;;;;;;;;;;;;;;;16.68;50.53;98880.77;1662170;86;21746;-66
2022/05/26 01:07:21;;;;;;;;;;;;;;;16.66;50.68;98883.12;1666600;85;20114;-67
2022/05/26 01:09:47;;;;;;;;;;;;;;;16.63;50.79;98884.41;1677782;85;20157;-67
2022/05/26 01:12:14;;;;;;;;;;;;;;;16.59;50.88;98876.05;1666100;85;20116;-67
2022/05/26 01:14:44;;;;;;;;;;;;;;;16.57;50.92;98878.39;1671367;85;20104;-66
2022/05/26 01:17:34;;;;;;;;;;;;;;;16.56;51.01;98884.30;1675681;85;21167;-67
2022/05/26 01:20:19;;;;;;;;;;;;;;;16.54;51.07;98882.48;1677281;85;20124;-66
2022/05/26 01:23:24;;;;;;;;;;;;;;;16.51;51.17;98884.83;1678329;85;20514;-67
2022/05/26 01:26:05;;;;;;;;;;;;;;;16.48;51.17;98886.95;1679118;85;20136;-66
2022/05/26 01:28:53;;;;;;;;;;;;;;;16.47;51.41;98885.36;1680354;83;20141;-66
2022/05/26 01:31:41;;;;;;;;;;;;;;;16.45;51.74;98879.38;1672322;85;21164;-67
2022/05/26 01:34:27;;;;;;;;;;;;;;;16.41;52.04;98875.75;1667774;85;37425;-67
2022/05/26 01:37:14;;;;;;;;;;;;;;;16.37;52.36;98876.86;1623841;87;20174;-67
2022/05/26 01:40:00;;;;;;;;;;;;;;;16.33;52.93;98869.88;1644490;87;20096;-67
2022/05/26 01:42:45;;;;;;;;;;;;;;;16.28;54.17;98868.00;1669875;85;20094;-68
2022/05/26 01:45:18;;;;;;;;;;;;;;;16.20;56.09;98869.84;1664708;85;21179;-68
2022/05/26 01:48:15;;;;;;;;;;;;;;;16.08;57.77;98865.91;1667109;85;20448;-68
2022/05/26 01:50:48;;;;;;;;;;;;;;;15.94;59.42;98861.50;1668889;85;20166;-68
2022/05/26 01:53:39;;;;;;;;;;;;;;;15.75;61.45;98852.06;1667897;85;20092;-66
2022/05/26 01:56:18;;;;;;;;;;;;;;;15.60;62.68;98848.03;1672190;85;20150;-66
2022/05/26 01:58:48;;;;;;;;;;;;;;;15.43;63.87;98846.48;1663930;85;22707;-66
2022/05/26 02:01:36;;;;;;;;;;;;;;;15.29;65.11;98847.58;1667644;84;20129;-68
2022/05/26 02:04:03;;;;;;;;;;;;;;;15.20;66.08;98849.97;1706114;82;20104;-70
2022/05/26 02:06:31;;;;;;;;;;;;;;;15.11;67.11;98848.58;1721787;82;20186;-68
2022/05/26 02:09:06;;;;;;;;;;;;;;;15.04;67.71;98851.99;1718186;82;20436;-68
2022/05/26 02:11:33;;;;;;;;;;;;;;;14.99;68.19;98852.31;1726021;82;21746;-68
2022/05/26 02:14:11;;;;;;;;;;;;;;;14.94;68.52;98853.97;1698257;83;20085;-71
2022/05/26 02:16:47;;;;;;;;;;;;;;;14.91;69.15;98860.22;1724784;82;20454;-69
2022/05/26 02:19:29;;;;;;;;;;;;;;;14.89;68.85;98861.16;1706369;84;20097;-69
2022/05/26 02:22:28;;;;;;;;;;;;;;;14.88;69.60;98865.09;1705768;84;20113;-69
2022/05/26 02:25:06;;;;;;;;;;;;;;;14.84;71.09;98877.44;1696494;82;21075;-67
2022/05/26 02:27:33;;;;;;;;;;;;;;;14.71;75.65;98886.20;1678031;85;20116;-72
2022/05/26 02:30:03;;;;;;;;;;;;;;;14.37;81.15;98874.73;1678038;85;20147;-67
2022/05/26 02:32:36;;;;;;;;;;;;;;;13.93;84.52;98873.19;1678064;85;20092;-67
2022/05/26 02:35:17;;;;;;;;;;;;;;;13.50;89.63;98867.33;1678243;85;20235;-67
2022/05/26 02:37:47;;;;;;;;;;;;;;;13.13;93.42;98874.92;1678118;85;20096;-68
2022/05/26 02:40:14;;;;;;;;;;;;;;;12.87;96.49;98878.08;1660297;85;20151;-67
2022/05/26 02:42:47;;;;;;;;;;;;;;;12.68;99.74;98878.47;1660543;85;20088;-67
2022/05/26 02:45:14;;;;;;;;;;;;;;;12.48;100.00;98858.98;1678060;85;20151;-67
2022/05/26 02:47:46;;;;;;;;;;;;;;;12.35;100.00;98866.20;1678006;85;20155;-67
2022/05/26 02:50:19;;;;;;;;;;;;;;;12.23;100.00;98859.55;1678028;85;21169;-67
2022/05/26 02:53:04;;;;;;;;;;;;;;;12.17;100.00;98862.86;1678160;85;20100;-67
2022/05/26 02:55:41;;;;;;;;;;;;;;;12.14;100.00;98855.29;1678545;85;20467;-67
2022/05/26 02:58:27;;;;;;;;;;;;;;;12.13;100.00;98850.97;1678101;85;20420;-67
2022/05/26 03:01:06;;;;;;;;;;;;;;;12.11;100.00;98842.25;1677656;85;20144;-72
2022/05/26 03:03:42;;;;;;;;;;;;;;;12.10;100.00;98843.39;1663578;85;21156;-66
2022/05/26 03:06:15;;;;;;;;;;;;;;;12.09;100.00;98841.22;1674056;84;20156;-67
2022/05/26 03:08:42;;;;;;;;;;;;;;;12.09;100.00;98845.34;1694243;84;20418;-66
2022/05/26 03:11:14;;;;;;;;;;;;;;;12.10;100.00;98846.15;1693956;84;20795;-70
2022/05/26 03:13:40;;;;;;;;;;;;;;;12.09;100.00;98850.05;1674253;84;20080;-66
2022/05/26 03:16:06;;;;;;;;;;;;;;;12.07;100.00;98849.01;1694128;84;21244;-67
2022/05/26 03:18:33;;;;;;;;;;;;;;;12.06;100.00;98854.28;1694241;84;20152;-67
2022/05/26 03:21:00;;;;;;;;;;;;;;;12.06;100.00;98855.66;1693936;84;20104;-68
2022/05/26 03:23:31;;;;;;;;;;;;;;;12.04;100.00;98855.77;1694238;84;20564;-67
2022/05/26 03:25:57;;;;;;;;;;;;;;;12.03;100.00;98847.28;1693922;83;20099;-68
2022/05/26 03:28:26;;;;;;;;;;;;;;;12.03;100.00;98851.41;1694027;84;21126;-67
2022/05/26 03:30:52;;;;;;;;;;;;;;;12.01;100.00;98849.58;1694024;84;20430;-70
2022/05/26 03:33:19;;;;;;;;;;;;;;;12.00;100.00;98846.02;1694186;84;20108;-68
2022/05/26 03:41:18;;;;;;;;;;;;;;;11.96;100.00;98847.84;1694377;84;21187;-68
2022/05/26 03:43:47;;;;;;;;;;;;;;;11.94;100.00;98855.63;1674376;84;20123;-68
2022/05/26 03:46:13;;;;;;;;;;;;;;;11.92;100.00;98844.17;1694340;84;20091;-68
2022/05/26 03:48:40;;;;;;;;;;;;;;;11.90;100.00;98845.89;1694355;84;20438;-69
2022/05/26 03:51:07;;;;;;;;;;;;;;;11.90;100.00;98842.33;1694517;84;20417;-67
2022/05/26 03:53:34;;;;;;;;;;;;;;;11.89;100.00;98847.60;1674745;84;22000;-68
2022/05/26 03:56:01;;;;;;;;;;;;;;;11.88;100.00;98850.92;1693622;83;20099;-67
2022/05/26 03:58:28;;;;;;;;;;;;;;;11.89;100.00;98842.91;1694522;84;20103;-68
2022/05/26 04:00:54;;;;;;;;;;;;;;;11.89;100.00;98842.11;1694014;84;20132;-68
2022/05/26 04:03:20;;;;;;;;;;;;;;;11.90;100.00;98846.45;1699203;84;20168;-70
2022/05/26 04:05:47;;;;;;;;;;;;;;;11.92;100.00;98852.99;1669524;85;21087;-68
2022/05/26 04:08:14;;;;;;;;;;;;;;;11.91;100.00;98843.94;1691312;85;20079;-68
2022/05/26 04:10:40;;;;;;;;;;;;;;;11.92;100.00;98847.49;1691479;85;20103;-69
2022/05/26 04:13:07;;;;;;;;;;;;;;;11.92;100.00;98846.12;1691357;85;20151;-69
2022/05/26 04:15:34;;;;;;;;;;;;;;;11.93;100.00;98842.22;1701040;82;20100;-68
2022/05/26 04:18:01;;;;;;;;;;;;;;;11.96;100.00;98841.55;1707901;84;21888;-68
2022/05/26 04:20:28;;;;;;;;;;;;;;;11.98;100.00;98848.88;1708012;84;20088;-69
2022/05/26 04:22:54;;;;;;;;;;;;;;;12.00;100.00;98848.77;1707937;84;20105;-68
2022/05/26 04:25:22;;;;;;;;;;;;;;;12.04;100.00;98843.39;1706719;82;20180;-68
2022/05/26 04:27:48;;;;;;;;;;;;;;;12.07;100.00;98847.63;1708022;84;20077;-69
2022/05/26 04:30:14;;;;;;;;;;;;;;;12.14;100.00;98851.16;1707104;84;21226;-68
2022/05/26 04:32:41;;;;;;;;;;;;;;;12.17;100.00;98848.53;1708017;84;20155;-68
2022/05/26 04:35:09;;;;;;;;;;;;;;;12.22;100.00;98857.13;1707845;84;20192;-68
2022/05/26 04:37:35;;;;;;;;;;;;;;;12.24;100.00;98852.09;1707871;84;20137;-67
2022/05/26 04:40:03;;;;;;;;;;;;;;;12.26;100.00;98852.55;1708001;84;20116;-67
2022/05/26 04:42:29;;;;;;;;;;;;;;;12.29;100.00;98851.06;1708071;84;21151;-67
2022/05/26 04:44:56;;;;;;;;;;;;;;;12.33;100.00;98853.36;1707868;84;20072;-69
2022/05/26 04:47:23;;;;;;;;;;;;;;;12.35;100.00;98860.70;1708021;84;20187;-68
2022/05/26 04:49:49;;;;;;;;;;;;;;;12.37;100.00;98863.33;1708042;84;20100;-68
2022/05/26 04:52:18;;;;;;;;;;;;;;;12.39;100.00;98858.29;1707872;84;20141;-68
2022/05/26 04:54:45;;;;;;;;;;;;;;;12.42;100.00;98860.92;1708243;84;21151;-68
2022/05/26 04:57:13;;;;;;;;;;;;;;;12.45;100.00;98867.13;1707935;84;20084;-68
2022/05/26 04:59:39;;;;;;;;;;;;;;;12.47;100.00;98867.58;1707939;84;20152;-68
2022/05/26 05:02:07;;;;;;;;;;;;;;;12.49;100.00;98872.17;1707999;84;20425;-68
2022/05/26 05:04:34;;;;;;;;;;;;;;;12.49;100.00;98870.22;1687962;84;20101;-68
2022/05/26 05:07:00;;;;;;;;;;;;;;;12.50;100.00;98867.69;1706773;84;21232;-69
2022/05/26 05:09:26;;;;;;;;;;;;;;;12.53;100.00;98864.25;1706666;84;20149;-69
2022/05/26 05:11:53;;;;;;;;;;;;;;;12.56;100.00;98871.82;1706698;84;20086;-69
2022/05/26 05:14:20;;;;;;;;;;;;;;;12.60;100.00;98867.00;1706606;84;20121;-68
2022/05/26 05:16:47;;;;;;;;;;;;;;;12.65;100.00;98879.16;1706822;84;20162;-69
2022/05/26 05:19:15;;;;;;;;;;;;;;;12.67;100.00;98878.24;1706763;83;21772;-69
2022/05/26 05:21:50;;;;;;;;;;;;;;;12.70;100.00;98887.19;1706959;84;20122;-68
2022/05/26 05:24:23;;;;;;;;;;;;;;;12.73;100.00;98890.03;1704023;82;20150;-68
2022/05/26 05:26:50;;;;;;;;;;;;;;;12.80;100.00;98892.20;1706693;84;20129;-67
2022/05/26 05:29:17;;;;;;;;;;;;;;;12.87;100.00;98891.05;1706924;84;20138;-68
2022/05/26 05:31:55;;;;;;;;;;;;;;;12.92;100.00;98902.41;1706677;84;21140;-68
2022/05/26 05:34:25;;;;;;;;;;;;;;;13.00;100.00;98905.03;1706685;83;20505;-67
2022/05/26 05:36:52;;;;;;;;;;;;;;;13.05;100.00;98904.80;1706675;84;20121;-68
2022/05/26 05:39:18;;;;;;;;;;;;;;;13.07;100.00;98906.62;1706657;84;20722;-68
2022/05/26 05:41:45;;;;;;;;;;;;;;;13.08;100.00;98911.56;1706789;84;20461;-67
2022/05/26 05:44:11;;;;;;;;;;;;;;;13.08;100.00;98916.50;1706176;83;21028;-67
2022/05/26 05:46:54;;;;;;;;;;;;;;;13.04;100.00;98914.78;1705365;84;20098;-67
2022/05/26 05:49:25;;;;;;;;;;;;;;;12.99;100.00;98917.78;1682061;85;20121;-67
2022/05/26 05:51:53;;;;;;;;;;;;;;;12.95;100.00;98923.75;1683164;84;20884;-67
2022/05/26 05:54:19;;;;;;;;;;;;;;;12.89;100.00;98914.92;1684220;85;20434;-67
2022/05/26 05:56:47;;;;;;;;;;;;;;;12.83;100.00;98913.55;1698396;83;20576;-67
2022/05/26 05:59:14;;;;;;;;;;;;;;;12.79;100.00;98918.94;1694055;84;20174;-68
2022/05/26 06:01:40;;;;;;;;;;;;;;;12.76;100.00;98914.70;1692132;84;20096;-67
2022/05/26 06:04:07;;;;;;;;;;;;;;;12.74;100.00;98923.88;1696101;84;20160;-69
2022/05/26 06:06:36;;;;;;;;;;;;;;;12.72;100.00;98923.42;1706966;84;20089;-67
2022/05/26 06:09:02;;;;;;;;;;;;;;;12.71;100.00;98914.95;1670449;85;21144;-68
2022/05/26 06:11:29;;;;;;;;;;;;;;;12.70;100.00;98918.86;1695898;84;20096;-67
2022/05/26 06:13:56;;;;;;;;;;;;;;;12.68;100.00;98923.33;1707933;84;20113;-67
2022/05/26 06:16:23;;;;;;;;;;;;;;;12.65;100.00;98931.48;1707855;84;20168;-67
2022/05/26 06:18:50;;;;;;;;;;;;;;;12.63;100.00;98937.91;1678687;85;20125;-67
2022/05/26 06:21:16;;;;;;;;;;;;;;;12.59;100.00;98941.11;1708177;84;21761;-68
2022/05/26 06:23:43;;;;;;;;;;;;;;;12.56;100.00;98935.15;1674412;85;20103;-74
2022/05/26 06:26:11;;;;;;;;;;;;;;;12.53;100.00;98950.98;1707110;82;20111;-67
2022/05/26 06:31:23;;;;;;;;;;;;;;;12.48;100.00;98958.08;1707014;84;20224;-66
2022/05/26 06:39:15;;;;;;;;;;;;;;;12.27;100.00;98956.55;1707962;84;20088;-67
2022/05/26 06:44:26;;;;;;;;;;;;;;;12.17;100.00;98968.22;1707982;84;20129;-67
2022/05/26 06:46:52;;;;;;;;;;;;;;;12.20;100.00;98954.36;1707882;84;21256;-66
2022/05/26 06:49:20;;;;;;;;;;;;;;;12.24;100.00;98953.91;1678665;85;20500;-67
2022/05/26 06:51:46;;;;;;;;;;;;;;;12.32;100.00;98953.58;1707858;84;20097;-67
2022/05/26 06:54:12;;;;;;;;;;;;;;;12.43;100.00;98956.92;1678616;85;20141;-66
2022/05/26 06:56:39;;;;;;;;;;;;;;;12.60;100.00;98957.29;1707994;84;20121;-67
2022/05/26 06:59:05;;;;;;;;;;;;;;;12.78;100.00;98952.34;1678809;85;21227;-69
2022/05/26 07:01:33;;;;;;;;;;;;;;;12.94;100.00;98957.38;1707832;84;20100;-77
2022/05/26 07:04:00;;;;;;;;;;;;;;;13.00;100.00;98957.95;1707326;84;20146;-75
2022/05/26 07:06:27;;;;;;;;;;;;;;;12.92;100.00;98967.14;1684885;85;20431;-69
2022/05/26 07:08:53;;;;;;;;;;;;;;;12.82;100.00;98975.29;1704312;84;20347;-69
2022/05/26 07:11:21;;;;;;;;;;;;;;;12.75;100.00;98970.92;1704747;83;21152;-73
2022/05/26 07:13:48;;;;;;;;;;;;;;;12.67;100.00;98977.38;1704900;83;20114;-73
2022/05/26 07:16:15;;;;;;;;;;;;;;;12.61;100.00;98975.99;1704958;84;20174;-71
2022/05/26 07:18:41;;;;;;;;;;;;;;;12.61;100.00;98989.77;1705208;83;20425;-74
2022/05/26 07:21:09;;;;;;;;;;;;;;;12.62;100.00;98984.48;1699329;84;20590;-72
2022/05/26 07:23:36;;;;;;;;;;;;;;;12.67;100.00;98985.06;1676609;85;21260;-68
2022/05/26 07:26:09;;;;;;;;;;;;;;;12.73;100.00;98983.66;1677988;84;20087;-71
2022/05/26 07:28:35;;;;;;;;;;;;;;;12.81;100.00;98967.59;1678112;85;20088;-68
2022/05/26 07:31:02;;;;;;;;;;;;;;;12.87;100.00;98968.17;1677994;84;20112;-71
2022/05/26 07:33:29;;;;;;;;;;;;;;;12.88;100.00;98981.61;1659925;85;20171;-72
2022/05/26 07:35:55;;;;;;;;;;;;;;;12.93;100.00;98972.87;1677983;84;21125;-74
2022/05/26 07:41:18;;;;;;;;;;;;;;;13.28;100.00;98979.54;1678223;85;20518;-76
2022/05/26 07:43:52;;;;;;;;;;;;;;;13.46;100.00;98989.70;1678531;85;20096;-83
2022/05/26 07:46:20;;;;;;;;;;;;;;;13.50;100.00;98997.50;1659989;85;20144;-79
2022/05/26 07:48:49;;;;;;;;;;;;;;;13.53;100.00;98998.19;1661255;85;20791;-78
2022/05/26 07:51:19;;;;;;;;;;;;;;;13.58;100.00;98990.25;1678333;84;20128;-77
2022/05/26 07:53:46;;;;;;;;;;;;;;;13.76;100.00;99006.17;1678692;85;20128;-77
2022/05/26 07:56:12;;;;;;;;;;;;;;;13.91;100.00;98983.91;1678485;84;20109;-78
2022/05/26 07:58:39;;;;;;;;;;;;;;;13.95;100.00;99006.88;1678294;85;20100;-73
2022/05/26 08:01:07;;;;;;;;;;;;;;;13.98;100.00;99007.56;1678689;85;21124;-73
2022/05/26 08:03:34;;;;;;;;;;;;;;;14.07;100.00;99009.59;1705941;84;20208;-73
2022/05/26 08:06:01;;;;;;;;;;;;;;;14.18;100.00;99007.94;1704955;84;20442;-73
2022/05/26 08:08:35;;;;;;;;;;;;;;;14.35;100.00;99010.16;1686202;84;20436;-73
2022/05/26 08:11:01;;;;;;;;;;;;;;;14.57;100.00;99014.29;1704290;84;20085;-74
2022/05/26 08:13:29;;;;;;;;;;;;;;;14.95;100.00;99009.54;1704936;84;21111;-69
2022/05/26 08:16:00;;;;;;;;;;;;;;;15.38;100.00;99011.33;1686188;84;20484;-71
2022/05/26 08:18:36;;;;;;;;;;;;;;;15.70;96.38;99003.74;1686213;84;20197;-68
2022/05/26 08:21:09;;;;;;;;;;;;;;;15.80;100.00;99012.27;1705044;84;20122;-69
2022/05/26 08:23:41;;;;;;;;;;;;;;;15.78;96.36;99014.60;1704964;84;20086;-69
2022/05/26 08:26:15;;;;;;;;;;;;;;;15.59;92.66;99015.98;1705778;84;22743;-69
2022/05/26 08:28:43;;;;;;;;;;;;;;;15.65;94.29;99017.28;1704589;84;20114;-70
2022/05/26 08:31:10;;;;;;;;;;;;;;;15.97;100.00;99019.94;1704782;84;20421;-69
2022/05/26 08:33:39;;;;;;;;;;;;;;;16.36;95.50;99005.45;1705009;83;20264;-69
2022/05/26 08:36:10;;;;;;;;;;;;;;;16.58;86.57;99008.03;1683007;84;20084;-69
2022/05/26 08:38:37;;;;;;;;;;;;;;;16.62;85.52;99008.90;1677588;85;21163;-72
2022/05/26 08:41:09;;;;;;;;;;;;;;;16.74;90.24;99028.95;1660828;85;20128;-72
2022/05/26 08:43:47;;;;;;;;;;;;;;;16.95;87.68;99027.11;1677768;85;20088;-74
2022/05/26 08:46:20;;;;;;;;;;;;;;;17.12;84.18;99014.70;1656399;85;20124;-69
2022/05/26 08:49:06;;;;;;;;;;;;;;;17.04;90.70;99022.70;1678341;85;20108;-69
2022/05/26 08:54:20;;;;;;;;;;;;;;;16.58;89.79;99032.39;1667098;85;20109;-72
2022/05/26 08:56:49;;;;;;;;;;;;;;;16.70;81.59;99025.31;1626118;84;20156;-71
2022/05/26 08:59:18;;;;;;;;;;;;;;;16.85;83.91;99023.56;1676840;85;20171;-72
2022/05/26 09:01:49;;;;;;;;;;;;;;;17.13;84.56;99030.98;1677315;84;20100;-71
2022/05/26 09:04:21;;;;;;;;;;;;;;;17.49;84.59;99022.59;1660899;85;20136;-72
2022/05/26 09:15:17;;;;;;;;;;;;;;;18.06;83.55;99031.69;1686844;84;20085;-72
2022/05/26 09:17:41;;;;;;;;;;;;;;;18.00;71.22;99030.42;1704020;83;21197;-72
2022/05/26 09:20:31;;;;;;;;;;;;;;;18.00;72.09;99027.64;1704732;84;20428;-71
2022/05/26 09:23:12;;;;;;;;;;;;;;;18.11;77.48;99036.91;1703020;84;20198;-71
2022/05/26 09:25:50;;;;;;;;;;;;;;;18.19;73.26;99039.78;1639112;86;20165;-73
2022/05/26 09:28:51;;;;;;;;;;;;;;;17.98;72.63;99036.14;1699119;84;20498;-71
2022/05/26 09:31:36;;;;;;;;;;;;;;;18.06;74.12;99034.47;1704908;83;21178;-71
2022/05/26 09:34:16;;;;;;;;;;;;;;;18.23;83.16;99041.42;1687515;84;20188;-70
2022/05/26 09:36:53;;;;;;;;;;;;;;;18.38;78.33;99037.63;1686746;84;20129;-71
2022/05/26 09:39:26;;;;;;;;;;;;;;;18.52;68.66;99012.53;1706056;84;20199;-74
2022/05/26 09:41:55;;;;;;;;;;;;;;;18.51;75.58;99042.31;1706075;83;20202;-71
2022/05/26 09:44:45;;;;;;;;;;;;;;;18.35;72.51;99035.61;1704286;84;21242;-72
2022/05/26 09:47:32;;;;;;;;;;;;;;;18.13;67.39;99037.33;1705177;84;20218;-70
2022/05/26 09:50:07;;;;;;;;;;;;;;;18.03;72.77;99036.61;1705875;83;20093;-70
2022/05/26 09:52:50;;;;;;;;;;;;;;;18.10;76.35;99028.95;1705908;84;20129;-70
2022/05/26 09:55:24;;;;;;;;;;;;;;;18.33;74.25;99039.95;1683159;84;20126;-72
2022/05/26 09:58:11;;;;;;;;;;;;;;;18.75;69.25;99040.41;1664756;85;21166;-68
2022/05/26 10:00:41;;;;;;;;;;;;;;;18.82;69.01;99029.95;1677485;85;20499;-69
2022/05/26 10:03:31;;;;;;;;;;;;;;;19.00;72.33;99040.64;1676650;85;20214;-68
2022/05/26 10:06:02;;;;;;;;;;;;;;;19.08;62.69;99018.63;1676881;85;20152;-71
2022/05/26 10:08:39;;;;;;;;;;;;;;;19.22;71.19;99044.97;1676897;84;20181;-72
2022/05/26 10:11:18;;;;;;;;;;;;;;;19.58;70.29;99037.12;1677375;84;21155;-72
2022/05/26 10:13:58;;;;;;;;;;;;;;;19.82;66.94;99026.48;1678618;85;20137;-69
2022/05/26 10:16:32;;;;;;;;;;;;;;;19.82;66.62;99048.17;1678794;85;20201;-70
2022/05/26 10:19:22;;;;;;;;;;;;;;;19.69;67.30;99044.11;1653927;85;20132;-70
2022/05/26 10:22:13;;;;;;;;;;;;;;;19.64;77.24;99039.71;1676809;85;20116;-67
2022/05/26 10:24:50;;;;;;;;;;;;;;;19.50;67.30;99046.58;1655284;85;21331;-68
2022/05/26 10:27:24;;;;;;;;;;;;;;;19.37;70.71;99049.46;1678606;84;20100;-67
2022/05/26 10:30:09;;;;;;;;;;;;;;;19.50;70.43;99039.62;1655252;85;20192;-70
2022/05/26 10:33:00;;;;;;;;;;;;;;;19.68;67.56;99037.75;1672389;84;20140;-70
2022/05/26 10:35:54;;;;;;;;;;;;;;;19.67;64.44;99047.29;1681803;84;20244;-69
2022/05/26 10:38:31;;;;;;;;;;;;;;;19.75;66.84;99053.11;1707329;84;21785;-72
2022/05/26 10:41:13;;;;;;;;;;;;;;;20.05;65.31;99057.05;1684585;84;20162;-69
2022/05/26 10:43:49;;;;;;;;;;;;;;;20.16;61.06;99057.11;1704107;84;20105;-68
2022/05/26 10:46:20;;;;;;;;;;;;;;;20.37;63.32;99057.16;1707627;84;20093;-69
2022/05/26 10:49:01;;;;;;;;;;;;;;;20.40;59.64;99045.85;1707646;82;20100;-69
2022/05/26 10:51:38;;;;;;;;;;;;;;;20.44;74.47;99056.42;1669211;84;20097;-68
2022/05/26 10:54:16;;;;;;;;;;;;;;;20.58;63.92;99050.88;1673441;84;20120;-68
2022/05/26 10:57:00;;;;;;;;;;;;;;;20.79;61.57;99040.97;1706447;84;20073;-68
2022/05/26 10:59:46;;;;;;;;;;;;;;;20.94;59.10;99052.32;1682139;84;20116;-71
2022/05/26 11:02:34;;;;;;;;;;;;;;;20.96;55.64;99056.31;1706464;84;20121;-72
2022/05/26 11:05:09;;;;;;;;;;;;;;;20.94;57.10;99060.69;1705798;84;21114;-71
2022/05/26 11:07:41;;;;;;;;;;;;;;;21.03;59.39;99052.73;1704173;84;20503;-70
2022/05/26 11:10:14;;;;;;;;;;;;;;;20.94;58.86;99057.30;1704624;83;20097;-72
2022/05/26 11:13:01;;;;;;;;;;;;;;;20.85;51.48;99062.47;1686188;84;20090;-75
2022/05/26 11:18:19;;;;;;;;;;;;;;;20.84;56.35;99058.08;1704908;83;21743;-68
2022/05/26 11:20:53;;;;;;;;;;;;;;;20.81;56.75;99054.69;1703995;84;20094;-69
2022/05/26 11:23:18;;;;;;;;;;;;;;;20.94;57.18;99057.91;1704896;83;20465;-69
2022/05/26 11:25:54;;;;;;;;;;;;;;;21.05;52.85;99053.92;1705542;82;20330;-68
2022/05/26 11:28:29;;;;;;;;;;;;;;;21.00;49.73;99056.31;1704781;84;20094;-74
2022/05/26 11:37:02;;;;;;;;;;;;;;;20.98;50.54;99058.70;1704924;84;20154;-71
2022/05/26 11:39:36;;;;;;;;;;;;;;;21.29;47.37;99052.38;1702995;84;20158;-72
2022/05/26 11:42:05;;;;;;;;;;;;;;;21.29;52.79;99059.35;1705163;83;20426;-71
2022/05/26 11:44:45;;;;;;;;;;;;;;;21.32;47.99;99061.34;1704956;83;21315;-67
2022/05/26 11:47:15;;;;;;;;;;;;;;;21.29;50.04;99068.33;1686077;84;20153;-68
2022/05/26 11:49:46;;;;;;;;;;;;;;;21.08;48.68;99069.88;1705014;83;20085;-68
2022/05/26 11:52:28;;;;;;;;;;;;;;;20.93;49.96;99078.03;1704794;83;20122;-68
2022/05/26 11:55:02;;;;;;;;;;;;;;;20.87;49.29;99075.42;1702606;84;20122;-78
2022/05/26 11:57:47;;;;;;;;;;;;;;;21.01;50.26;99081.03;1705095;83;21839;-83
2022/05/26 12:00:36;;;;;;;;;;;;;;;21.19;50.37;99083.05;1704672;84;20094;-74
2022/05/26 12:03:24;;;;;;;;;;;;;;;21.21;46.98;99091.81;1705017;83;20117;-73
2022/05/26 12:06:12;;;;;;;;;;;;;;;21.05;50.60;99087.41;1704966;83;20126;-74
2022/05/26 12:08:55;;;;;;;;;;;;;;;20.81;48.82;99086.77;1686542;84;20137;-75
2022/05/26 12:11:59;;;;;;;;;;;;;;;20.63;50.56;99096.52;1693101;84;20641;-70
2022/05/26 12:14:29;;;;;;;;;;;;;;;20.76;50.05;99089.38;1705012;84;20453;-75
2022/05/26 12:17:32;;;;;;;;;;;;;;;20.98;48.54;99094.37;1704951;83;20086;-77
2022/05/26 12:20:15;;;;;;;;;;;;;;;20.92;49.59;99083.41;1704885;83;20119;-81
2022/05/26 12:22:51;;;;;;;;;;;;;;;20.63;49.95;99080.38;1704840;83;20098;-78
2022/05/26 12:25:23;;;;;;;;;;;;;;;20.51;49.93;99089.09;1705010;84;21167;-71
2022/05/26 12:27:54;;;;;;;;;;;;;;;20.63;49.61;99078.98;1704966;84;20138;-74
2022/05/26 12:30:49;;;;;;;;;;;;;;;20.80;47.96;99086.57;1705075;84;20147;-73
2022/05/26 12:33:21;;;;;;;;;;;;;;;21.00;46.14;99084.22;1705181;83;20101;-64
2022/05/26 12:36:00;;;;;;;;;;;;;;;21.44;47.13;99071.28;1705121;83;20129;-65
2022/05/26 12:38:56;;;;;;;;;;;;;;;21.92;49.03;99077.20;1705153;84;22252;-65
2022/05/26 12:41:56;;;;;;;;;;;;;;;22.10;45.31;99077.75;1695584;84;20129;-73
2022/05/26 12:44:42;;;;;;;;;;;;;;;21.81;47.34;99084.02;1705472;84;20224;-71
2022/05/26 12:47:36;;;;;;;;;;;;;;;21.35;45.69;99079.30;1706385;84;20141;-69
2022/05/26 12:50:18;;;;;;;;;;;;;;;21.05;46.92;99090.80;1702148;84;20149;-69
2022/05/26 12:52:58;;;;;;;;;;;;;;;21.01;49.32;99083.82;1664414;86;21338;-68
2022/05/26 12:55:46;;;;;;;;;;;;;;;21.28;45.36;99070.31;1704970;83;20138;-69
2022/05/26 12:58:20;;;;;;;;;;;;;;;21.61;45.53;99075.26;1705355;84;20098;-68
2022/05/26 13:00:49;;;;;;;;;;;;;;;21.89;46.46;99085.59;1705156;83;20431;-69
2022/05/26 13:03:31;;;;;;;;;;;;;;;21.71;43.78;99073.84;1705217;84;20078;-69
2022/05/26 13:06:07;;;;;;;;;;;;;;;21.30;46.07;99076.30;1705549;84;21856;-67
2022/05/26 13:09:02;;;;;;;;;;;;;;;20.99;46.43;99079.23;1706403;84;20117;-72
2022/05/26 13:11:36;;;;;;;;;;;;;;;20.73;47.80;99072.04;1686117;84;20119;-71
2022/05/26 13:14:06;;;;;;;;;;;;;;;20.51;47.93;99079.34;1705187;84;20124;-66
2022/05/26 13:16:36;;;;;;;;;;;;;;;20.35;46.44;99073.48;1682618;84;20433;-66
2022/05/26 13:19:20;;;;;;;;;;;;;;;20.43;48.09;99079.31;1706373;84;20120;-68
2022/05/26 13:21:49;;;;;;;;;;;;;;;20.87;48.42;99064.27;1706006;83;20143;-68
2022/05/26 13:24:18;;;;;;;;;;;;;;;21.25;46.33;99064.73;1706333;84;20140;-69
2022/05/26 13:26:45;;;;;;;;;;;;;;;21.60;44.32;99066.08;1682379;84;20096;-71
2022/05/26 13:29:14;;;;;;;;;;;;;;;22.10;45.83;99076.36;1703328;84;20085;-68
2022/05/26 13:34:29;;;;;;;;;;;;;;;23.01;45.03;99073.70;1691826;84;20103;-69
2022/05/26 13:36:55;;;;;;;;;;;;;;;23.26;41.58;99065.09;1656058;85;20123;-67
2022/05/26 13:39:24;;;;;;;;;;;;;;;23.46;43.21;99070.93;1679507;85;20122;-69
2022/05/26 13:41:56;;;;;;;;;;;;;;;23.52;42.43;99081.09;1679480;85;20146;-67
2022/05/26 13:44:42;;;;;;;;;;;;;;;23.23;42.75;99076.33;1679177;85;21164;-66
2022/05/26 13:47:10;;;;;;;;;;;;;;;22.86;42.56;99077.01;1679413;84;20493;-67
2022/05/26 13:49:39;;;;;;;;;;;;;;;22.86;41.47;99084.00;1633476;85;20102;-67
2022/05/26 13:52:18;;;;;;;;;;;;;;;23.05;41.55;99084.28;1679239;85;20174;-69
2022/05/26 13:54:55;;;;;;;;;;;;;;;23.23;39.96;99079.13;1679184;85;20123;-69
2022/05/26 13:57:33;;;;;;;;;;;;;;;23.54;42.82;99095.50;1679275;85;21131;-70